sensor_id;sensor_type;location;lat;lon;timestamp;P1;P2;P0
83597;PMS5003;73565;45.774;15.892;2023-12-20T00:00:59;109;94;61
83597;PMS5003;73565;45.774;15.892;2023-12-20T00:02:59;118;109;66
83597;PMS5003;73565;45.774;15.892;2023-12-20T00:04:59;100;84;57
83597;PMS5003;73565;45.774;15.892;2023-12-20T00:06:59;100;82;51
83597;PMS5003;73565;45.774;15.892;2023-12-20T00:08:59;106;88;58
83597;PMS5003;73565;45.774;15.892;2023-12-20T00:10:59;97;79;51
83597;PMS5003;73565;45.774;15.892;2023-12-20T00:12:59;111;99;63
83597;PMS5003;73565;45.774;15.892;2023-12-20T00:14:59;103;88;58
83597;PMS5003;73565;45.774;15.892;2023-12-20T00:16:59;105;91;51
83597;PMS5003;73565;45.774;15.892;2023-12-20T00:18:59;108;91;54
83597;PMS5003;73565;45.774;15.892;2023-12-20T00:20:59;106;94;58
83597;PMS5003;73565;45.774;15.892;2023-12-20T00:22:59;105;85;55
83597;PMS5003;73565;45.774;15.892;2023-12-20T00:24:59;93;75;51
83597;PMS5003;73565;45.774;15.892;2023-12-20T00:26:59;106;94;60
83597;PMS5003;73565;45.774;15.892;2023-12-20T00:28:59;103;85;51
83597;PMS5003;73565;45.774;15.892;2023-12-20T00:30:59;100;79;52
83597;PMS5003;73565;45.774;15.892;2023-12-20T00:32:59;102;84;57
83597;PMS5003;73565;45.774;15.892;2023-12-20T00:34:59;96;78;49
83597;PMS5003;73565;45.774;15.892;2023-12-20T00:36:59;106;91;55
83597;PMS5003;73565;45.774;15.892;2023-12-20T00:38:59;105;88;55
83597;PMS5003;73565;45.774;15.892;2023-12-20T00:40:59;103;82;52
83597;PMS5003;73565;45.774;15.892;2023-12-20T00:42:59;106;90;60
83597;PMS5003;73565;45.774;15.892;2023-12-20T00:44:59;103;82;51
83597;PMS5003;73565;45.774;15.892;2023-12-20T00:46:59;103;85;52
83597;PMS5003;73565;45.774;15.892;2023-12-20T00:48:59;115;103;60
83597;PMS5003;73565;45.774;15.892;2023-12-20T00:50:59;118;109;66
83597;PMS5003;73565;45.774;15.892;2023-12-20T00:53:00;114;103;63
83597;PMS5003;73565;45.774;15.892;2023-12-20T00:54:59;114;103;61
83597;PMS5003;73565;45.774;15.892;2023-12-20T00:57:00;115;103;66
83597;PMS5003;73565;45.774;15.892;2023-12-20T00:59:00;115;103;60
83597;PMS5003;73565;45.774;15.892;2023-12-20T01:00:59;115;102;66
83597;PMS5003;73565;45.774;15.892;2023-12-20T01:03:00;136;130;70
83597;PMS5003;73565;45.774;15.892;2023-12-20T01:04:59;115;106;67
83597;PMS5003;73565;45.774;15.892;2023-12-20T01:06:59;115;103;63
83597;PMS5003;73565;45.774;15.892;2023-12-20T01:08:01;124;115;70
83597;PMS5003;73565;45.774;15.892;2023-12-20T01:09:36;117;103;63
83597;PMS5003;73565;45.774;15.892;2023-12-20T01:11:36;115;105;64
83597;PMS5003;73565;45.774;15.892;2023-12-20T01:13:36;115;108;61
83597;PMS5003;73565;45.774;15.892;2023-12-20T01:15:36;123;115;69
83597;PMS5003;73565;45.774;15.892;2023-12-20T01:17:36;121;115;69
83597;PMS5003;73565;45.774;15.892;2023-12-20T01:19:36;114;103;61
83597;PMS5003;73565;45.774;15.892;2023-12-20T01:21:36;112;94;52
83597;PMS5003;73565;45.774;15.892;2023-12-20T01:23:36;114;102;64
83597;PMS5003;73565;45.774;15.892;2023-12-20T01:25:36;114;102;57
83597;PMS5003;73565;45.774;15.892;2023-12-20T01:27:36;109;97;58
83597;PMS5003;73565;45.774;15.892;2023-12-20T01:29:36;111;99;58
83597;PMS5003;73565;45.774;15.892;2023-12-20T01:31:36;108;93;57
83597;PMS5003;73565;45.774;15.892;2023-12-20T01:33:36;103;78;43
83597;PMS5003;73565;45.774;15.892;2023-12-20T01:35:36;108;93;60
83597;PMS5003;73565;45.774;15.892;2023-12-20T01:37:36;105;85;51
83597;PMS5003;73565;45.774;15.892;2023-12-20T01:39:36;106;91;58
83597;PMS5003;73565;45.774;15.892;2023-12-20T01:41:36;109;96;54
83597;PMS5003;73565;45.774;15.892;2023-12-20T01:43:36;100;78;49
83597;PMS5003;73565;45.774;15.892;2023-12-20T01:45:36;109;94;63
83597;PMS5003;73565;45.774;15.892;2023-12-20T01:47:36;99;79;48
83597;PMS5003;73565;45.774;15.892;2023-12-20T01:49:36;109;93;57
83597;PMS5003;73565;45.774;15.892;2023-12-20T01:51:36;108;91;54
83597;PMS5003;73565;45.774;15.892;2023-12-20T01:53:37;112;100;55
83597;PMS5003;73565;45.774;15.892;2023-12-20T01:55:36;109;97;58
83597;PMS5003;73565;45.774;15.892;2023-12-20T01:57:36;112;94;58
83597;PMS5003;73565;45.774;15.892;2023-12-20T01:59:37;109;88;52
83597;PMS5003;73565;45.774;15.892;2023-12-20T02:01:36;117;106;64
83597;PMS5003;73565;45.774;15.892;2023-12-20T02:03:36;118;100;58
83597;PMS5003;73565;45.774;15.892;2023-12-20T02:05:36;111;97;58
83597;PMS5003;73565;45.774;15.892;2023-12-20T02:07:36;102;85;52
83597;PMS5003;73565;45.774;15.892;2023-12-20T02:09:36;109;93;57
83597;PMS5003;73565;45.774;15.892;2023-12-20T02:11:36;109;94;51
83597;PMS5003;73565;45.774;15.892;2023-12-20T02:13:36;108;90;55
83597;PMS5003;73565;45.774;15.892;2023-12-20T02:15:36;102;85;52
83597;PMS5003;73565;45.774;15.892;2023-12-20T02:17:36;108;91;51
83597;PMS5003;73565;45.774;15.892;2023-12-20T02:19:36;106;88;52
83597;PMS5003;73565;45.774;15.892;2023-12-20T02:21:36;103;79;55
83597;PMS5003;73565;45.774;15.892;2023-12-20T02:23:36;99;81;52
83597;PMS5003;73565;45.774;15.892;2023-12-20T02:25:36;103;81;55
83597;PMS5003;73565;45.774;15.892;2023-12-20T02:27:36;109;91;55
83597;PMS5003;73565;45.774;15.892;2023-12-20T02:29:36;108;93;58
83597;PMS5003;73565;45.774;15.892;2023-12-20T02:31:36;112;97;55
83597;PMS5003;73565;45.774;15.892;2023-12-20T02:33:36;108;91;54
83597;PMS5003;73565;45.774;15.892;2023-12-20T02:35:36;100;81;54
83597;PMS5003;73565;45.774;15.892;2023-12-20T02:37:36;108;85;54
83597;PMS5003;73565;45.774;15.892;2023-12-20T02:39:36;100;84;51
83597;PMS5003;73565;45.774;15.892;2023-12-20T02:41:36;97;78;51
83597;PMS5003;73565;45.774;15.892;2023-12-20T02:43:36;97;76;48
83597;PMS5003;73565;45.774;15.892;2023-12-20T02:45:36;97;79;52
83597;PMS5003;73565;45.774;15.892;2023-12-20T02:47:36;97;78;49
83597;PMS5003;73565;45.774;15.892;2023-12-20T02:49:36;100;79;51
83597;PMS5003;73565;45.774;15.892;2023-12-20T02:51:36;100;82;52
83597;PMS5003;73565;45.774;15.892;2023-12-20T02:53:36;103;81;51
83597;PMS5003;73565;45.774;15.892;2023-12-20T02:55:36;103;85;52
83597;PMS5003;73565;45.774;15.892;2023-12-20T02:57:36;99;82;51
83597;PMS5003;73565;45.774;15.892;2023-12-20T02:59:36;99;79;51
83597;PMS5003;73565;45.774;15.892;2023-12-20T03:01:36;102;85;52
83597;PMS5003;73565;45.774;15.892;2023-12-20T03:03:36;96;76;51
83597;PMS5003;73565;45.774;15.892;2023-12-20T03:05:36;97;76;51
83597;PMS5003;73565;45.774;15.892;2023-12-20T03:07:36;102;82;52
83597;PMS5003;73565;45.774;15.892;2023-12-20T03:09:36;94;75;49
83597;PMS5003;73565;45.774;15.892;2023-12-20T03:11:36;93;75;49
83597;PMS5003;73565;45.774;15.892;2023-12-20T03:13:36;105;84;52
83597;PMS5003;73565;45.774;15.892;2023-12-20T03:15:36;97;78;49
83597;PMS5003;73565;45.774;15.892;2023-12-20T03:17:36;99;78;51
83597;PMS5003;73565;45.774;15.892;2023-12-20T03:19:36;90;73;51
83597;PMS5003;73565;45.774;15.892;2023-12-20T03:21:36;90;75;51
83597;PMS5003;73565;45.774;15.892;2023-12-20T03:23:36;97;78;51
83597;PMS5003;73565;45.774;15.892;2023-12-20T03:25:36;94;78;49
83597;PMS5003;73565;45.774;15.892;2023-12-20T03:27:36;100;85;52
83597;PMS5003;73565;45.774;15.892;2023-12-20T03:29:36;100;79;52
83597;PMS5003;73565;45.774;15.892;2023-12-20T03:31:36;96;78;49
83597;PMS5003;73565;45.774;15.892;2023-12-20T03:33:36;102;82;52
83597;PMS5003;73565;45.774;15.892;2023-12-20T03:35:36;94;76;48
83597;PMS5003;73565;45.774;15.892;2023-12-20T03:37:36;97;78;51
83597;PMS5003;73565;45.774;15.892;2023-12-20T03:39:36;94;76;46
83597;PMS5003;73565;45.774;15.892;2023-12-20T03:41:36;87;72;51
83597;PMS5003;73565;45.774;15.892;2023-12-20T03:43:36;94;76;51
83597;PMS5003;73565;45.774;15.892;2023-12-20T03:45:36;93;76;51
83597;PMS5003;73565;45.774;15.892;2023-12-20T03:47:36;99;78;51
83597;PMS5003;73565;45.774;15.892;2023-12-20T03:49:36;97;78;49
83597;PMS5003;73565;45.774;15.892;2023-12-20T03:51:36;79;66;37
83597;PMS5003;73565;45.774;15.892;2023-12-20T03:53:36;103;82;51
83597;PMS5003;73565;45.774;15.892;2023-12-20T03:55:36;97;78;48
83597;PMS5003;73565;45.774;15.892;2023-12-20T03:57:36;97;78;49
83597;PMS5003;73565;45.774;15.892;2023-12-20T03:59:38;90;72;46
83597;PMS5003;73565;45.774;15.892;2023-12-20T04:01:36;91;75;46
83597;PMS5003;73565;45.774;15.892;2023-12-20T04:03:36;93;73;49
83597;PMS5003;73565;45.774;15.892;2023-12-20T04:05:36;84;69;46
83597;PMS5003;73565;45.774;15.892;2023-12-20T04:07:36;78;63;40
83597;PMS5003;73565;45.774;15.892;2023-12-20T04:09:36;87;70;46
83597;PMS5003;73565;45.774;15.892;2023-12-20T04:11:36;88;72;45
83597;PMS5003;73565;45.774;15.892;2023-12-20T04:13:36;88;72;48
83597;PMS5003;73565;45.774;15.892;2023-12-20T04:15:36;90;73;46
83597;PMS5003;73565;45.774;15.892;2023-12-20T04:17:36;87;73;48
83597;PMS5003;73565;45.774;15.892;2023-12-20T04:19:36;93;73;46
83597;PMS5003;73565;45.774;15.892;2023-12-20T04:21:36;91;73;46
83597;PMS5003;73565;45.774;15.892;2023-12-20T04:23:36;85;72;46
83597;PMS5003;73565;45.774;15.892;2023-12-20T04:25:36;82;66;45
83597;PMS5003;73565;45.774;15.892;2023-12-20T04:27:36;97;78;49
83597;PMS5003;73565;45.774;15.892;2023-12-20T04:29:36;93;75;46
83597;PMS5003;73565;45.774;15.892;2023-12-20T04:31:36;93;76;51
83597;PMS5003;73565;45.774;15.892;2023-12-20T04:33:36;87;72;46
83597;PMS5003;73565;45.774;15.892;2023-12-20T04:35:36;93;76;49
83597;PMS5003;73565;45.774;15.892;2023-12-20T04:37:36;85;69;39
83597;PMS5003;73565;45.774;15.892;2023-12-20T04:39:36;97;78;51
83597;PMS5003;73565;45.774;15.892;2023-12-20T04:41:36;78;64;40
83597;PMS5003;73565;45.774;15.892;2023-12-20T04:43:36;90;73;46
83597;PMS5003;73565;45.774;15.892;2023-12-20T04:45:36;79;66;42
83597;PMS5003;73565;45.774;15.892;2023-12-20T04:47:36;87;69;43
83597;PMS5003;73565;45.774;15.892;2023-12-20T04:49:36;85;70;45
83597;PMS5003;73565;45.774;15.892;2023-12-20T04:51:36;85;69;43
83597;PMS5003;73565;45.774;15.892;2023-12-20T04:53:36;85;70;46
83597;PMS5003;73565;45.774;15.892;2023-12-20T04:55:36;85;69;42
83597;PMS5003;73565;45.774;15.892;2023-12-20T04:57:36;90;72;46
83597;PMS5003;73565;45.774;15.892;2023-12-20T04:59:36;79;66;43
83597;PMS5003;73565;45.774;15.892;2023-12-20T05:01:36;85;69;45
83597;PMS5003;73565;45.774;15.892;2023-12-20T05:03:36;87;72;46
83597;PMS5003;73565;45.774;15.892;2023-12-20T05:05:36;90;73;48
83597;PMS5003;73565;45.774;15.892;2023-12-20T05:07:36;91;72;46
83597;PMS5003;73565;45.774;15.892;2023-12-20T05:09:36;85;69;45
83597;PMS5003;73565;45.774;15.892;2023-12-20T05:11:36;91;73;46
83597;PMS5003;73565;45.774;15.892;2023-12-20T05:13:36;84;69;43
83597;PMS5003;73565;45.774;15.892;2023-12-20T05:15:36;88;70;45
83597;PMS5003;73565;45.774;15.892;2023-12-20T05:17:36;82;69;42
83597;PMS5003;73565;45.774;15.892;2023-12-20T05:19:36;84;69;46
83597;PMS5003;73565;45.774;15.892;2023-12-20T05:21:36;82;67;43
83597;PMS5003;73565;45.774;15.892;2023-12-20T05:23:36;85;70;46
83597;PMS5003;73565;45.774;15.892;2023-12-20T05:25:36;91;75;49
83597;PMS5003;73565;45.774;15.892;2023-12-20T05:27:36;76;64;45
83597;PMS5003;73565;45.774;15.892;2023-12-20T05:29:36;87;72;43
83597;PMS5003;73565;45.774;15.892;2023-12-20T05:31:39;76;61;36
83597;PMS5003;73565;45.774;15.892;2023-12-20T05:33:36;76;64;42
83597;PMS5003;73565;45.774;15.892;2023-12-20T05:35:36;73;61;43
83597;PMS5003;73565;45.774;15.892;2023-12-20T05:37:36;75;63;42
83597;PMS5003;73565;45.774;15.892;2023-12-20T05:39:36;84;69;43
83597;PMS5003;73565;45.774;15.892;2023-12-20T05:41:36;84;69;43
83597;PMS5003;73565;45.774;15.892;2023-12-20T05:43:36;81;66;45
83597;PMS5003;73565;45.774;15.892;2023-12-20T05:45:36;82;69;43
83597;PMS5003;73565;45.774;15.892;2023-12-20T05:47:36;87;70;45
83597;PMS5003;73565;45.774;15.892;2023-12-20T05:49:36;82;69;43
83597;PMS5003;73565;45.774;15.892;2023-12-20T05:51:36;79;66;42
83597;PMS5003;73565;45.774;15.892;2023-12-20T05:53:36;84;69;45
83597;PMS5003;73565;45.774;15.892;2023-12-20T05:55:36;66;57;42
83597;PMS5003;73565;45.774;15.892;2023-12-20T05:57:36;79;66;45
83597;PMS5003;73565;45.774;15.892;2023-12-20T05:59:36;78;64;39
83597;PMS5003;73565;45.774;15.892;2023-12-20T06:01:36;75;61;45
83597;PMS5003;73565;45.774;15.892;2023-12-20T06:03:36;75;63;43
83597;PMS5003;73565;45.774;15.892;2023-12-20T06:05:36;79;67;42
83597;PMS5003;73565;45.774;15.892;2023-12-20T06:07:36;81;66;40
83597;PMS5003;73565;45.774;15.892;2023-12-20T06:09:36;73;63;39
83597;PMS5003;73565;45.774;15.892;2023-12-20T06:11:36;70;57;28
83597;PMS5003;73565;45.774;15.892;2023-12-20T06:13:36;85;70;45
83597;PMS5003;73565;45.774;15.892;2023-12-20T06:15:36;81;67;43
83597;PMS5003;73565;45.774;15.892;2023-12-20T06:17:36;81;64;40
83597;PMS5003;73565;45.774;15.892;2023-12-20T06:19:36;85;70;45
83597;PMS5003;73565;45.774;15.892;2023-12-20T06:21:36;82;67;43
83597;PMS5003;73565;45.774;15.892;2023-12-20T06:23:36;70;61;42
83597;PMS5003;73565;45.774;15.892;2023-12-20T06:25:36;78;64;45
83597;PMS5003;73565;45.774;15.892;2023-12-20T06:27:36;81;67;45
83597;PMS5003;73565;45.774;15.892;2023-12-20T06:29:37;85;69;46
83597;PMS5003;73565;45.774;15.892;2023-12-20T06:31:36;75;61;39
83597;PMS5003;73565;45.774;15.892;2023-12-20T06:33:36;82;67;46
83597;PMS5003;73565;45.774;15.892;2023-12-20T06:35:39;79;67;42
83597;PMS5003;73565;45.774;15.892;2023-12-20T06:37:36;88;72;46
83597;PMS5003;73565;45.774;15.892;2023-12-20T06:39:36;87;72;45
83597;PMS5003;73565;45.774;15.892;2023-12-20T06:41:36;85;70;48
83597;PMS5003;73565;45.774;15.892;2023-12-20T06:43:36;79;66;42
83597;PMS5003;73565;45.774;15.892;2023-12-20T06:45:36;84;69;45
83597;PMS5003;73565;45.774;15.892;2023-12-20T06:47:36;78;64;40
83597;PMS5003;73565;45.774;15.892;2023-12-20T06:49:36;78;66;43
83597;PMS5003;73565;45.774;15.892;2023-12-20T06:51:36;58;52;36
83597;PMS5003;73565;45.774;15.892;2023-12-20T06:53:36;84;69;45
83597;PMS5003;73565;45.774;15.892;2023-12-20T06:55:39;82;67;43
83597;PMS5003;73565;45.774;15.892;2023-12-20T06:57:36;76;60;42
83597;PMS5003;73565;45.774;15.892;2023-12-20T06:59:37;84;67;43
83597;PMS5003;73565;45.774;15.892;2023-12-20T07:01:36;82;69;43
83597;PMS5003;73565;45.774;15.892;2023-12-20T07:03:36;82;69;43
83597;PMS5003;73565;45.774;15.892;2023-12-20T07:05:36;82;69;45
83597;PMS5003;73565;45.774;15.892;2023-12-20T07:07:36;90;72;46
83597;PMS5003;73565;45.774;15.892;2023-12-20T07:09:38;85;67;46
83597;PMS5003;73565;45.774;15.892;2023-12-20T07:11:36;84;69;45
83597;PMS5003;73565;45.774;15.892;2023-12-20T07:13:36;91;72;46
83597;PMS5003;73565;45.774;15.892;2023-12-20T07:15:36;73;61;36
83597;PMS5003;73565;45.774;15.892;2023-12-20T07:17:36;78;64;39
83597;PMS5003;73565;45.774;15.892;2023-12-20T07:19:36;84;69;43
83597;PMS5003;73565;45.774;15.892;2023-12-20T07:21:36;85;70;43
83597;PMS5003;73565;45.774;15.892;2023-12-20T07:23:36;49;46;22
83597;PMS5003;73565;45.774;15.892;2023-12-20T07:25:36;79;66;42
83597;PMS5003;73565;45.774;15.892;2023-12-20T07:27:36;88;70;43
83597;PMS5003;73565;45.774;15.892;2023-12-20T07:29:36;84;69;45
83597;PMS5003;73565;45.774;15.892;2023-12-20T07:31:38;87;72;45
83597;PMS5003;73565;45.774;15.892;2023-12-20T07:33:36;88;73;46
83597;PMS5003;73565;45.774;15.892;2023-12-20T07:35:36;93;75;48
83597;PMS5003;73565;45.774;15.892;2023-12-20T07:37:36;85;69;45
83597;PMS5003;73565;45.774;15.892;2023-12-20T07:39:36;88;72;45
83597;PMS5003;73565;45.774;15.892;2023-12-20T07:41:36;87;69;45
83597;PMS5003;73565;45.774;15.892;2023-12-20T07:43:36;93;75;48
83597;PMS5003;73565;45.774;15.892;2023-12-20T07:45:36;79;66;42
83597;PMS5003;73565;45.774;15.892;2023-12-20T07:47:36;88;70;42
83597;PMS5003;73565;45.774;15.892;2023-12-20T07:49:36;82;67;45
83597;PMS5003;73565;45.774;15.892;2023-12-20T07:51:36;79;67;43
83597;PMS5003;73565;45.774;15.892;2023-12-20T07:53:36;91;73;46
83597;PMS5003;73565;45.774;15.892;2023-12-20T07:55:36;91;76;48
83597;PMS5003;73565;45.774;15.892;2023-12-20T07:57:36;84;69;43
83597;PMS5003;73565;45.774;15.892;2023-12-20T07:59:36;91;75;49
83597;PMS5003;73565;45.774;15.892;2023-12-20T08:01:36;94;76;52
83597;PMS5003;73565;45.774;15.892;2023-12-20T08:03:36;94;75;45
83597;PMS5003;73565;45.774;15.892;2023-12-20T08:05:36;90;72;49
83597;PMS5003;73565;45.774;15.892;2023-12-20T08:07:36;93;76;51
83597;PMS5003;73565;45.774;15.892;2023-12-20T08:09:36;99;79;51
83597;PMS5003;73565;45.774;15.892;2023-12-20T08:11:36;100;82;51
83597;PMS5003;73565;45.774;15.892;2023-12-20T08:13:36;102;81;55
83597;PMS5003;73565;45.774;15.892;2023-12-20T08:15:36;114;99;55
83597;PMS5003;73565;45.774;15.892;2023-12-20T08:17:36;102;82;52
83597;PMS5003;73565;45.774;15.892;2023-12-20T08:19:36;103;87;51
83597;PMS5003;73565;45.774;15.892;2023-12-20T08:21:36;102;82;52
83597;PMS5003;73565;45.774;15.892;2023-12-20T08:23:36;106;88;55
83597;PMS5003;73565;45.774;15.892;2023-12-20T08:25:36;108;97;61
83597;PMS5003;73565;45.774;15.892;2023-12-20T08:27:36;111;97;55
83597;PMS5003;73565;45.774;15.892;2023-12-20T08:29:36;112;100;64
83597;PMS5003;73565;45.774;15.892;2023-12-20T08:31:36;112;99;58
83597;PMS5003;73565;45.774;15.892;2023-12-20T08:33:36;120;109;70
83597;PMS5003;73565;45.774;15.892;2023-12-20T08:35:36;120;114;72
83597;PMS5003;73565;45.774;15.892;2023-12-20T08:37:36;118;115;79
83597;PMS5003;73565;45.774;15.892;2023-12-20T08:39:36;124;118;73
83597;PMS5003;73565;45.774;15.892;2023-12-20T08:41:36;124;120;70
83597;PMS5003;73565;45.774;15.892;2023-12-20T08:45:09;134;127;83
83597;PMS5003;73565;45.774;15.892;2023-12-20T08:46:18;126;120;75
83597;PMS5003;73565;45.774;15.892;2023-12-20T08:48:17;120;117;73
83597;PMS5003;73565;45.774;15.892;2023-12-20T08:50:17;120;114;73
83597;PMS5003;73565;45.774;15.892;2023-12-20T08:52:17;124;118;73
83597;PMS5003;73565;45.774;15.892;2023-12-20T08:54:18;117;109;70
83597;PMS5003;73565;45.774;15.892;2023-12-20T08:56:17;123;120;79
83597;PMS5003;73565;45.774;15.892;2023-12-20T08:58:20;133;121;72
83597;PMS5003;73565;45.774;15.892;2023-12-20T09:00:18;123;120;73
83597;PMS5003;73565;45.774;15.892;2023-12-20T09:02:17;126;121;72
83597;PMS5003;73565;45.774;15.892;2023-12-20T09:04:18;114;105;55
83597;PMS5003;73565;45.774;15.892;2023-12-20T09:06:18;133;129;73
83597;PMS5003;73565;45.774;15.892;2023-12-20T09:08:18;115;102;69
83597;PMS5003;73565;45.774;15.892;2023-12-20T09:10:18;118;109;66
83597;PMS5003;73565;45.774;15.892;2023-12-20T09:12:18;132;118;67
83597;PMS5003;73565;45.774;15.892;2023-12-20T09:14:17;120;117;70
83597;PMS5003;73565;45.774;15.892;2023-12-20T09:16:17;126;115;69
83597;PMS5003;73565;45.774;15.892;2023-12-20T09:18:17;117;111;61
83597;PMS5003;73565;45.774;15.892;2023-12-20T09:20:17;135;130;73
83597;PMS5003;73565;45.774;15.892;2023-12-20T09:22:17;118;109;67
83597;PMS5003;73565;45.774;15.892;2023-12-20T09:24:17;115;108;61
83597;PMS5003;73565;45.774;15.892;2023-12-20T09:26:51;136;127;76
83597;PMS5003;73565;45.774;15.892;2023-12-20T09:27:52;127;121;79
83597;PMS5003;73565;45.774;15.892;2023-12-20T09:29:53;111;97;67
83597;PMS5003;73565;45.774;15.892;2023-12-20T09:31:52;114;96;57
83597;PMS5003;73565;45.774;15.892;2023-12-20T09:33:52;118;115;70
83597;PMS5003;73565;45.774;15.892;2023-12-20T09:35:52;117;109;67
83597;PMS5003;73565;45.774;15.892;2023-12-20T09:37:52;117;106;64
83597;PMS5003;73565;45.774;15.892;2023-12-20T09:39:54;118;109;69
83597;PMS5003;73565;45.774;15.892;2023-12-20T09:41:55;115;109;67
83597;PMS5003;73565;45.774;15.892;2023-12-20T09:43:52;118;111;67
83597;PMS5003;73565;45.774;15.892;2023-12-20T09:45:53;114;103;64
83597;PMS5003;73565;45.774;15.892;2023-12-20T09:47:53;115;105;64
83597;PMS5003;73565;45.774;15.892;2023-12-20T09:49:52;112;100;65
83597;PMS5003;73565;45.774;15.892;2023-12-20T09:51:53;93;76;48
83597;PMS5003;73565;45.774;15.892;2023-12-20T09:53:53;114;103;66
83597;PMS5003;73565;45.774;15.892;2023-12-20T09:55:53;112;96;58
83597;PMS5003;73565;45.774;15.892;2023-12-20T09:57:53;106;91;58
83597;PMS5003;73565;45.774;15.892;2023-12-20T09:59:53;109;99;59
83597;PMS5003;73565;45.774;15.892;2023-12-20T10:01:52;109;97;58
83597;PMS5003;73565;45.774;15.892;2023-12-20T10:03:53;109;93;57
83597;PMS5003;73565;45.774;15.892;2023-12-20T10:05:53;108;93;60
83597;PMS5003;73565;45.774;15.892;2023-12-20T10:07:52;105;91;60
83597;PMS5003;73565;45.774;15.892;2023-12-20T10:09:53;102;81;55
83597;PMS5003;73565;45.774;15.892;2023-12-20T10:11:53;94;76;49
83597;PMS5003;73565;45.774;15.892;2023-12-20T10:13:58;101;82;52
83597;PMS5003;73565;45.774;15.892;2023-12-20T10:15:52;78;65;42
83597;PMS5003;73565;45.774;15.892;2023-12-20T10:17:52;104;91;56
83597;PMS5003;73565;45.774;15.892;2023-12-20T10:19:53;107;98;60
83597;PMS5003;73565;45.774;15.892;2023-12-20T10:21:52;107;90;59
83597;PMS5003;73565;45.774;15.892;2023-12-20T10:23:53;120;112;68
83597;PMS5003;73565;45.774;15.892;2023-12-20T10:28:08;115;109;64
83597;PMS5003;73565;45.774;15.892;2023-12-20T10:29:52;139;129;78
83597;PMS5003;73565;45.774;15.892;2023-12-20T10:31:52;129;120;71
83597;PMS5003;73565;45.774;15.892;2023-12-20T10:33:52;145;133;78
83597;PMS5003;73565;45.774;15.892;2023-12-20T10:35:52;133;130;80
83597;PMS5003;73565;45.774;15.892;2023-12-20T10:37:53;153;144;85
83597;PMS5003;73565;45.774;15.892;2023-12-20T10:39:54;162;153;89
83597;PMS5003;73565;45.774;15.892;2023-12-20T10:41:52;171;163;97
83597;PMS5003;73565;45.774;15.892;2023-12-20T10:43:52;169;157;94
83597;PMS5003;73565;45.774;15.892;2023-12-20T10:45:52;157;154;94
83597;PMS5003;73565;45.774;15.892;2023-12-20T10:47:52;168;162;87
83597;PMS5003;73565;45.774;15.892;2023-12-20T10:49:52;181;174;106
83597;PMS5003;73565;45.774;15.892;2023-12-20T10:51:52;188;174;99
83597;PMS5003;73565;45.774;15.892;2023-12-20T10:53:55;191;183;107
83597;PMS5003;73565;45.774;15.892;2023-12-20T10:55:52;193;183;105
83597;PMS5003;73565;45.774;15.892;2023-12-20T10:57:53;189;170;100
83597;PMS5003;73565;45.774;15.892;2023-12-20T10:59:52;179;173;99
83597;PMS5003;73565;45.774;15.892;2023-12-20T11:01:52;166;160;99
83597;PMS5003;73565;45.774;15.892;2023-12-20T11:03:55;182;175;92
83597;PMS5003;73565;45.774;15.892;2023-12-20T11:05:53;165;153;87
83597;PMS5003;73565;45.774;15.892;2023-12-20T11:07:54;180;164;95
83597;PMS5003;73565;45.774;15.892;2023-12-20T11:09:58;159;149;85
83597;PMS5003;73565;45.774;15.892;2023-12-20T11:12:04;156;153;86
83597;PMS5003;73565;45.774;15.892;2023-12-20T11:14:03;150;138;77
83597;PMS5003;73565;45.774;15.892;2023-12-20T11:15:52;152;142;76
83597;PMS5003;73565;45.774;15.892;2023-12-20T11:17:58;139;135;80
83597;PMS5003;73565;45.774;15.892;2023-12-20T11:21:52;137;133;73
83597;PMS5003;73565;45.774;15.892;2023-12-20T11:23:52;129;121;69
83597;PMS5003;73565;45.774;15.892;2023-12-20T11:24:26;131;119;71
83597;PMS5003;73565;45.774;15.892;2023-12-20T11:25:52;127;124;71
83597;PMS5003;73565;45.774;15.892;2023-12-20T11:27:46;113;104;52
83597;PMS5003;73565;45.774;15.892;2023-12-20T11:29:45;123;117;68
83597;PMS5003;73565;45.774;15.892;2023-12-20T11:31:47;122;119;68
83597;PMS5003;73565;45.774;15.892;2023-12-20T11:33:45;130;121;73
83597;PMS5003;73565;45.774;15.892;2023-12-20T11:35:45;125;113;63
83597;PMS5003;73565;45.774;15.892;2023-12-20T11:37:45;120;120;72
83597;PMS5003;73565;45.774;15.892;2023-12-20T11:40:29;164;150;84
83597;PMS5003;73565;45.774;15.892;2023-12-20T11:41:44;116;110;54
83597;PMS5003;73565;45.774;15.892;2023-12-20T11:43:44;133;130;76
83597;PMS5003;73565;45.774;15.892;2023-12-20T11:45:51;127;124;70
83597;PMS5003;73565;45.774;15.892;2023-12-20T11:49:06;133;126;71
83597;PMS5003;73565;45.774;15.892;2023-12-20T11:51:08;134;123;71
83597;PMS5003;73565;45.774;15.892;2023-12-20T11:53:06;140;137;75
83597;PMS5003;73565;45.774;15.892;2023-12-20T11:55:06;128;121;67
83597;PMS5003;73565;45.774;15.892;2023-12-20T11:57:06;134;124;64
83597;PMS5003;73565;45.774;15.892;2023-12-20T11:59:06;138;131;77
83597;PMS5003;73565;45.774;15.892;2023-12-20T12:01:06;132;119;61
83597;PMS5003;73565;45.774;15.892;2023-12-20T12:03:06;137;133;73
83597;PMS5003;73565;45.774;15.892;2023-12-20T12:05:06;148;138;80
83597;PMS5003;73565;45.774;15.892;2023-12-20T12:07:06;143;133;76
83597;PMS5003;73565;45.774;15.892;2023-12-20T12:09:06;145;137;73
83597;PMS5003;73565;45.774;15.892;2023-12-20T12:11:06;134;127;71
83597;PMS5003;73565;45.774;15.892;2023-12-20T12:13:06;126;121;73
83597;PMS5003;73565;45.774;15.892;2023-12-20T12:15:06;142;134;75
83597;PMS5003;73565;45.774;15.892;2023-12-20T12:17:06;140;130;79
83597;PMS5003;73565;45.774;15.892;2023-12-20T12:19:06;138;132;76
83597;PMS5003;73565;45.774;15.892;2023-12-20T12:21:06;113;109;68
83597;PMS5003;73565;45.774;15.892;2023-12-20T12:23:29;139;131;71
83597;PMS5003;73565;45.774;15.892;2023-12-20T12:25:29;142;136;76
83597;PMS5003;73565;45.774;15.892;2023-12-20T12:27:29;141;130;71
83597;PMS5003;73565;45.774;15.892;2023-12-20T12:29:29;139;129;71